Naomi, South Dakota
Current Conditions -  °F | °C
As of 3:56 PM on Thursday 20 Nov 2014 (Local Time) from KFSD Reporting Station
Clear Clear  
Wind Chill: -12°   Ceiling: Unl
Heat Index: -7°   Visibility: 10mi
Dew Point: -12°   Wind: 8mph
Humidity: 65%   Direction: 320°NW
Pressure: 30.17"   Gusts: NA
Location:  43.3014°N, 96.8655°W
Report Text: KFSD 202156Z 32007KT 10SM CLR M07/M12 A3017 RMK AO2 SLP246 T10671122
Loading
Personal Weather Stations






























Interactive Weather Map New forecast layout! Learn more

10-Day Weather Forecast

Advertisements
Track Severe Weather on mobile